Time;durP1;ratioP1;P1;durP2;ratioP2;P2;SDS_P1;SDS_P2;PMS_P1;PMS_P2;Temp;Humidity;BMP_temperature;BMP_pressure;BME280_temperature;BME280_humidity;BME280_pressure;Samples;Min_cycle;Max_cycle;Signal;HPM_P1;HPM_P2
2021/03/14 21:36:00;;;;;;;16.98;8.82;;;180.00;2252.80;;;;;;5110968;27;20392;-66
2021/03/14 21:38:27;;;;;;;13.82;7.53;;;204.80;2252.80;;;;;;5111041;28;20024;-68
2021/03/14 21:40:53;;;;;;;10.63;7.13;;;204.90;2252.80;;;;;;5110628;28;20035;-72
2021/03/14 21:43:19;;;;;;;19.02;9.27;;;205.10;2252.80;;;;;;5111008;28;20018;-68
2021/03/14 21:45:45;;;;;;;19.92;10.70;;;205.20;2252.80;;;;;;5110632;28;20468;-68
2021/03/14 21:48:11;;;;;;;19.70;11.48;;;205.30;2252.80;;;;;;5110600;28;20107;-72
2021/03/14 21:50:37;;;;;;;18.98;11.45;;;205.50;2252.80;;;;;;5110864;28;20048;-73
2021/03/14 21:53:03;;;;;;;15.55;10.75;;;205.60;2252.80;;;;;;5110494;28;20020;-73
2021/03/14 21:55:29;;;;;;;14.43;7.90;;;205.70;2227.20;;;;;;5110374;28;20198;-72
2021/03/14 21:57:55;;;;;;;12.02;8.68;;;205.70;2201.60;;;;;;5110373;28;20027;-73
2021/03/14 22:00:21;;;;;;;11.60;7.25;;;230.40;2201.60;;;;;;5110335;28;20020;-67
2021/03/14 22:02:47;;;;;;;10.88;8.18;;;230.40;2201.60;;;;;;5110302;28;20028;-73
2021/03/14 22:05:14;;;;;;;10.20;7.57;;;230.50;2201.60;;;;;;5110229;28;20032;-66
2021/03/14 22:07:40;;;;;;;10.23;6.20;;;230.50;2176.00;;;;;;5110190;28;20504;-67
2021/03/14 22:10:08;;;;;;;9.93;6.53;;;230.60;2176.00;;;;;;5110181;28;20020;-73
2021/03/14 22:12:34;;;;;;;8.85;6.25;;;230.60;2150.40;;;;;;5110036;28;20022;-74
2021/03/14 22:15:00;;;;;;;18.77;14.75;;;230.70;2176.00;;;;;;5109991;28;20031;-69
2021/03/14 22:17:26;;;;;;;11.27;8.20;;;230.70;2150.40;;;;;;5110108;28;20069;-67
2021/03/14 22:19:52;;;;;;;8.25;6.28;;;230.80;2150.40;;;;;;5110038;28;20549;-75
2021/03/14 22:22:18;;;;;;;8.32;5.72;;;230.70;2150.40;;;;;;5110292;28;20024;-70
2021/03/14 22:24:44;;;;;;;10.10;6.60;;;230.60;2150.40;;;;;;5110347;28;20027;-75
2021/03/14 22:27:10;;;;;;;9.05;5.85;;;230.70;2176.00;;;;;;5110658;28;20036;-72
2021/03/14 22:29:36;;;;;;;9.43;6.18;;;230.70;2176.00;;;;;;5108976;28;20032;-67
2021/03/14 22:32:03;;;;;;;8.40;5.72;;;230.70;2176.00;;;;;;5110197;28;20028;-68
2021/03/14 22:34:29;;;;;;;10.20;6.07;;;230.70;2176.00;;;;;;5108117;28;20488;-68
2021/03/14 22:36:56;;;;;;;9.25;6.00;;;230.60;2176.00;;;;;;5110176;28;20024;-77
2021/03/14 22:39:23;;;;;;;8.15;6.00;;;230.50;2201.60;;;;;;5110131;28;20020;-75
2021/03/14 22:41:49;;;;;;;9.13;5.75;;;230.60;2201.60;;;;;;5109992;28;20055;-74
2021/03/14 22:44:15;;;;;;;12.93;6.60;;;230.50;2201.60;;;;;;5110007;28;20052;-73
2021/03/14 22:46:41;;;;;;;26.80;8.80;;;230.50;2201.60;;;;;;5099116;28;20406;-69
2021/03/14 22:49:07;;;;;;;12.90;7.57;;;230.50;2201.60;;;;;;5096326;28;20020;-73
2021/03/14 22:51:33;;;;;;;19.38;8.63;;;230.50;2201.60;;;;;;5096311;28;20035;-75
2021/03/14 22:53:59;;;;;;;12.90;7.22;;;230.40;2227.20;;;;;;5087882;28;20027;-74
2021/03/14 22:56:25;;;;;;;9.43;5.70;;;230.40;2227.20;;;;;;5095984;28;20021;-75
2021/03/14 22:58:51;;;;;;;10.45;6.45;;;230.40;2227.20;;;;;;5095519;28;20024;-74
2021/03/14 23:01:16;;;;;;;9.93;6.18;;;205.70;2227.20;;;;;;5095440;28;20073;-74
2021/03/14 23:03:42;;;;;;;8.38;6.57;;;205.70;2227.20;;;;;;5095502;28;20070;-74
2021/03/14 23:06:08;;;;;;;9.65;6.63;;;205.70;2227.20;;;;;;5095423;28;20023;-74
2021/03/14 23:08:35;;;;;;;7.80;5.57;;;205.60;2227.20;;;;;;5095373;28;20023;-75
2021/03/14 23:11:05;;;;;;;12.02;5.78;;;205.60;2227.20;;;;;;5095334;28;20020;-75
2021/03/14 23:13:32;;;;;;;7.57;5.30;;;205.70;2227.20;;;;;;5095727;28;20016;-75
2021/03/14 23:15:58;;;;;;;12.48;6.43;;;230.40;2201.60;;;;;;5091580;28;20396;-77
2021/03/14 23:18:25;;;;;;;10.65;6.25;;;205.70;2201.60;;;;;;5095353;28;20028;-76
2021/03/14 23:20:52;;;;;;;12.25;7.55;;;205.70;2176.00;;;;;;5095283;28;20017;-76
2021/03/14 23:23:24;;;;;;;7.82;5.65;;;205.70;2176.00;;;;;;5092822;28;20042;-73
2021/03/14 23:25:52;;;;;;;12.63;6.18;;;205.70;2176.00;;;;;;5095299;28;20064;-76
2021/03/14 23:28:24;;;;;;;9.88;6.90;;;205.70;2176.00;;;;;;5092543;28;20519;-68
2021/03/14 23:30:51;;;;;;;9.20;6.40;;;205.70;2201.60;;;;;;5095042;28;20023;-67
2021/03/14 23:33:22;;;;;;;11.23;5.93;;;205.60;2201.60;;;;;;5094006;28;20020;-67
2021/03/14 23:35:49;;;;;;;8.02;5.75;;;205.70;2201.60;;;;;;5094201;28;20048;-71
2021/03/14 23:38:15;;;;;;;9.00;5.63;;;230.40;2201.60;;;;;;5094395;28;20021;-71
2021/03/14 23:40:41;;;;;;;11.43;6.18;;;230.40;2176.00;;;;;;5094374;28;20107;-67
2021/03/14 23:43:09;;;;;;;9.20;5.53;;;230.40;2150.40;;;;;;5094362;28;20350;-67
2021/03/14 23:45:36;;;;;;;8.07;5.20;;;230.40;2150.40;;;;;;5093906;28;20048;-67
2021/03/14 23:48:03;;;;;;;7.50;5.57;;;205.70;2176.00;;;;;;5094594;28;20024;-70
2021/03/14 23:50:30;;;;;;;7.95;5.70;;;205.70;2176.00;;;;;;5094632;28;20154;-67
2021/03/14 23:52:56;;;;;;;9.55;6.13;;;205.70;2176.00;;;;;;5094756;28;20381;-67
2021/03/14 23:55:22;;;;;;;8.15;5.82;;;205.70;2201.60;;;;;;5094827;28;20039;-67
2021/03/14 23:57:48;;;;;;;8.70;5.53;;;205.70;2176.00;;;;;;5093622;28;20468;-67
